sensor_id;sensor_type;location;lat;lon;timestamp;P1;durP1;ratioP1;P2;durP2;ratioP2
75218;SDS011;63801;49.414;19.474;2024-01-10T00:01:01;258.65;;;76.47;;
75218;SDS011;63801;49.414;19.474;2024-01-10T00:03:01;249.93;;;76.50;;
75218;SDS011;63801;49.414;19.474;2024-01-10T00:05:02;204.93;;;57.75;;
75218;SDS011;63801;49.414;19.474;2024-01-10T00:07:03;188.77;;;58.80;;
75218;SDS011;63801;49.414;19.474;2024-01-10T00:09:04;163.30;;;47.45;;
75218;SDS011;63801;49.414;19.474;2024-01-10T00:11:05;164.73;;;48.47;;
75218;SDS011;63801;49.414;19.474;2024-01-10T00:13:05;188.35;;;55.03;;
75218;SDS011;63801;49.414;19.474;2024-01-10T00:15:06;182.95;;;54.45;;
75218;SDS011;63801;49.414;19.474;2024-01-10T00:17:06;208.10;;;58.80;;
75218;SDS011;63801;49.414;19.474;2024-01-10T00:19:07;175.20;;;52.00;;
75218;SDS011;63801;49.414;19.474;2024-01-10T00:21:08;186.75;;;51.40;;
75218;SDS011;63801;49.414;19.474;2024-01-10T00:23:08;185.57;;;51.15;;
75218;SDS011;63801;49.414;19.474;2024-01-10T00:25:08;176.40;;;53.28;;
75218;SDS011;63801;49.414;19.474;2024-01-10T00:27:09;196.32;;;55.22;;
75218;SDS011;63801;49.414;19.474;2024-01-10T00:29:10;193.98;;;53.88;;
75218;SDS011;63801;49.414;19.474;2024-01-10T00:31:10;160.77;;;49.70;;
75218;SDS011;63801;49.414;19.474;2024-01-10T00:33:10;197.70;;;56.13;;
75218;SDS011;63801;49.414;19.474;2024-01-10T00:35:14;209.32;;;63.05;;
75218;SDS011;63801;49.414;19.474;2024-01-10T00:37:14;229.18;;;69.03;;
75218;SDS011;63801;49.414;19.474;2024-01-10T00:39:14;248.82;;;70.95;;
75218;SDS011;63801;49.414;19.474;2024-01-10T00:41:15;382.88;;;113.03;;
75218;SDS011;63801;49.414;19.474;2024-01-10T00:43:16;359.35;;;109.22;;
75218;SDS011;63801;49.414;19.474;2024-01-10T00:45:16;332.40;;;101.63;;
75218;SDS011;63801;49.414;19.474;2024-01-10T00:47:17;377.48;;;112.60;;
75218;SDS011;63801;49.414;19.474;2024-01-10T00:49:17;375.65;;;109.97;;
75218;SDS011;63801;49.414;19.474;2024-01-10T00:51:17;320.23;;;97.95;;
75218;SDS011;63801;49.414;19.474;2024-01-10T00:53:17;351.15;;;103.03;;
75218;SDS011;63801;49.414;19.474;2024-01-10T00:55:18;352.15;;;106.20;;
75218;SDS011;63801;49.414;19.474;2024-01-10T00:57:18;337.67;;;100.63;;
75218;SDS011;63801;49.414;19.474;2024-01-10T00:59:18;342.58;;;101.55;;
75218;SDS011;63801;49.414;19.474;2024-01-10T01:01:19;329.35;;;100.88;;
75218;SDS011;63801;49.414;19.474;2024-01-10T01:03:19;305.45;;;88.65;;
75218;SDS011;63801;49.414;19.474;2024-01-10T01:05:20;287.52;;;88.15;;
75218;SDS011;63801;49.414;19.474;2024-01-10T01:07:20;235.30;;;71.28;;
75218;SDS011;63801;49.414;19.474;2024-01-10T01:09:20;245.80;;;73.95;;
75218;SDS011;63801;49.414;19.474;2024-01-10T01:11:21;261.23;;;77.60;;
75218;SDS011;63801;49.414;19.474;2024-01-10T01:13:21;218.82;;;68.10;;
75218;SDS011;63801;49.414;19.474;2024-01-10T01:15:21;215.82;;;63.92;;
75218;SDS011;63801;49.414;19.474;2024-01-10T01:17:21;305.58;;;86.13;;
75218;SDS011;63801;49.414;19.474;2024-01-10T01:19:22;315.92;;;93.88;;
75218;SDS011;63801;49.414;19.474;2024-01-10T01:21:22;322.90;;;94.50;;
75218;SDS011;63801;49.414;19.474;2024-01-10T01:23:23;300.00;;;90.43;;
75218;SDS011;63801;49.414;19.474;2024-01-10T01:25:23;287.88;;;90.82;;
75218;SDS011;63801;49.414;19.474;2024-01-10T01:27:23;309.92;;;91.53;;
75218;SDS011;63801;49.414;19.474;2024-01-10T01:29:23;295.75;;;89.82;;
75218;SDS011;63801;49.414;19.474;2024-01-10T01:31:24;331.38;;;100.50;;
75218;SDS011;63801;49.414;19.474;2024-01-10T01:33:24;197.43;;;59.00;;
75218;SDS011;63801;49.414;19.474;2024-01-10T01:35:25;212.35;;;56.88;;
75218;SDS011;63801;49.414;19.474;2024-01-10T01:37:25;290.67;;;83.30;;
75218;SDS011;63801;49.414;19.474;2024-01-10T01:39:26;216.63;;;63.25;;
75218;SDS011;63801;49.414;19.474;2024-01-10T01:41:26;197.52;;;60.58;;
75218;SDS011;63801;49.414;19.474;2024-01-10T01:43:26;220.65;;;61.92;;
75218;SDS011;63801;49.414;19.474;2024-01-10T01:45:27;235.10;;;64.88;;
75218;SDS011;63801;49.414;19.474;2024-01-10T01:47:27;244.00;;;68.97;;
75218;SDS011;63801;49.414;19.474;2024-01-10T01:49:28;235.60;;;72.90;;
75218;SDS011;63801;49.414;19.474;2024-01-10T01:51:29;191.15;;;61.13;;
75218;SDS011;63801;49.414;19.474;2024-01-10T01:53:31;204.18;;;57.70;;
75218;SDS011;63801;49.414;19.474;2024-01-10T01:55:31;228.15;;;62.70;;
75218;SDS011;63801;49.414;19.474;2024-01-10T01:57:32;148.52;;;44.75;;
75218;SDS011;63801;49.414;19.474;2024-01-10T01:59:32;124.68;;;41.67;;
75218;SDS011;63801;49.414;19.474;2024-01-10T02:01:33;165.77;;;47.20;;
75218;SDS011;63801;49.414;19.474;2024-01-10T02:03:33;159.85;;;47.00;;
75218;SDS011;63801;49.414;19.474;2024-01-10T02:05:34;167.57;;;49.05;;
75218;SDS011;63801;49.414;19.474;2024-01-10T02:07:34;177.63;;;50.70;;
75218;SDS011;63801;49.414;19.474;2024-01-10T02:09:35;180.10;;;53.00;;
75218;SDS011;63801;49.414;19.474;2024-01-10T02:11:35;175.00;;;49.95;;
75218;SDS011;63801;49.414;19.474;2024-01-10T02:13:36;180.18;;;51.85;;
75218;SDS011;63801;49.414;19.474;2024-01-10T02:15:37;192.50;;;57.80;;
75218;SDS011;63801;49.414;19.474;2024-01-10T02:17:38;198.35;;;53.08;;
75218;SDS011;63801;49.414;19.474;2024-01-10T02:19:39;185.95;;;54.65;;
75218;SDS011;63801;49.414;19.474;2024-01-10T02:21:39;185.95;;;56.97;;
75218;SDS011;63801;49.414;19.474;2024-01-10T02:23:39;211.32;;;63.38;;
75218;SDS011;63801;49.414;19.474;2024-01-10T02:25:40;187.57;;;52.55;;
75218;SDS011;63801;49.414;19.474;2024-01-10T02:27:40;168.77;;;47.60;;
75218;SDS011;63801;49.414;19.474;2024-01-10T02:29:41;174.40;;;49.40;;
75218;SDS011;63801;49.414;19.474;2024-01-10T02:31:41;202.50;;;61.08;;
75218;SDS011;63801;49.414;19.474;2024-01-10T02:33:41;206.32;;;60.17;;
75218;SDS011;63801;49.414;19.474;2024-01-10T02:35:42;229.02;;;63.08;;
75218;SDS011;63801;49.414;19.474;2024-01-10T02:37:42;199.25;;;56.35;;
75218;SDS011;63801;49.414;19.474;2024-01-10T02:39:43;185.93;;;54.92;;
75218;SDS011;63801;49.414;19.474;2024-01-10T02:41:43;182.23;;;56.05;;
75218;SDS011;63801;49.414;19.474;2024-01-10T02:43:43;165.07;;;50.83;;
75218;SDS011;63801;49.414;19.474;2024-01-10T02:45:44;173.30;;;49.75;;
75218;SDS011;63801;49.414;19.474;2024-01-10T02:47:44;159.40;;;46.28;;
75218;SDS011;63801;49.414;19.474;2024-01-10T02:49:45;133.32;;;42.30;;
75218;SDS011;63801;49.414;19.474;2024-01-10T02:51:45;149.45;;;45.00;;
75218;SDS011;63801;49.414;19.474;2024-01-10T02:53:46;181.77;;;50.72;;
75218;SDS011;63801;49.414;19.474;2024-01-10T02:55:46;170.10;;;49.47;;
75218;SDS011;63801;49.414;19.474;2024-01-10T02:57:46;169.73;;;50.75;;
75218;SDS011;63801;49.414;19.474;2024-01-10T02:59:47;169.77;;;49.53;;
75218;SDS011;63801;49.414;19.474;2024-01-10T03:01:47;169.98;;;47.92;;
75218;SDS011;63801;49.414;19.474;2024-01-10T03:03:47;150.73;;;42.60;;
75218;SDS011;63801;49.414;19.474;2024-01-10T03:05:48;149.10;;;44.08;;
75218;SDS011;63801;49.414;19.474;2024-01-10T03:07:48;123.70;;;37.78;;
75218;SDS011;63801;49.414;19.474;2024-01-10T03:09:48;85.78;;;26.63;;
75218;SDS011;63801;49.414;19.474;2024-01-10T03:11:49;82.10;;;27.40;;
75218;SDS011;63801;49.414;19.474;2024-01-10T03:13:49;65.28;;;20.35;;
75218;SDS011;63801;49.414;19.474;2024-01-10T03:15:51;45.45;;;14.68;;
75218;SDS011;63801;49.414;19.474;2024-01-10T03:17:51;39.17;;;14.55;;
75218;SDS011;63801;49.414;19.474;2024-01-10T03:19:52;40.53;;;11.93;;
75218;SDS011;63801;49.414;19.474;2024-01-10T03:21:52;43.65;;;12.73;;
75218;SDS011;63801;49.414;19.474;2024-01-10T03:23:59;34.45;;;12.18;;
75218;SDS011;63801;49.414;19.474;2024-01-10T03:26:00;37.05;;;12.20;;
75218;SDS011;63801;49.414;19.474;2024-01-10T03:28:01;54.38;;;16.23;;
75218;SDS011;63801;49.414;19.474;2024-01-10T03:30:01;86.78;;;27.58;;
75218;SDS011;63801;49.414;19.474;2024-01-10T03:32:01;164.25;;;47.00;;
75218;SDS011;63801;49.414;19.474;2024-01-10T03:34:03;235.88;;;65.32;;
75218;SDS011;63801;49.414;19.474;2024-01-10T03:36:04;260.40;;;71.60;;
75218;SDS011;63801;49.414;19.474;2024-01-10T03:38:05;253.30;;;74.85;;
75218;SDS011;63801;49.414;19.474;2024-01-10T03:40:06;214.10;;;63.65;;
75218;SDS011;63801;49.414;19.474;2024-01-10T03:42:06;223.13;;;63.85;;
75218;SDS011;63801;49.414;19.474;2024-01-10T03:44:07;201.20;;;63.28;;
75218;SDS011;63801;49.414;19.474;2024-01-10T03:46:07;222.63;;;67.30;;
75218;SDS011;63801;49.414;19.474;2024-01-10T03:48:08;179.15;;;53.15;;
75218;SDS011;63801;49.414;19.474;2024-01-10T03:50:09;225.73;;;63.05;;
75218;SDS011;63801;49.414;19.474;2024-01-10T03:52:09;239.68;;;59.65;;
75218;SDS011;63801;49.414;19.474;2024-01-10T03:54:09;207.32;;;61.25;;
75218;SDS011;63801;49.414;19.474;2024-01-10T03:56:10;209.75;;;61.75;;
75218;SDS011;63801;49.414;19.474;2024-01-10T03:58:11;222.13;;;64.27;;
75218;SDS011;63801;49.414;19.474;2024-01-10T04:00:11;222.35;;;62.13;;
75218;SDS011;63801;49.414;19.474;2024-01-10T04:02:12;192.77;;;57.90;;
75218;SDS011;63801;49.414;19.474;2024-01-10T04:04:12;218.68;;;65.80;;
75218;SDS011;63801;49.414;19.474;2024-01-10T04:06:13;196.40;;;59.75;;
75218;SDS011;63801;49.414;19.474;2024-01-10T04:08:13;206.77;;;65.07;;
75218;SDS011;63801;49.414;19.474;2024-01-10T04:10:13;220.43;;;60.25;;
75218;SDS011;63801;49.414;19.474;2024-01-10T04:12:14;191.15;;;60.33;;
75218;SDS011;63801;49.414;19.474;2024-01-10T04:14:14;215.18;;;60.47;;
75218;SDS011;63801;49.414;19.474;2024-01-10T04:16:15;187.45;;;57.47;;
75218;SDS011;63801;49.414;19.474;2024-01-10T04:18:15;183.05;;;53.88;;
75218;SDS011;63801;49.414;19.474;2024-01-10T04:20:16;184.18;;;52.78;;
75218;SDS011;63801;49.414;19.474;2024-01-10T04:22:16;190.90;;;55.28;;
75218;SDS011;63801;49.414;19.474;2024-01-10T04:24:16;276.50;;;81.03;;
75218;SDS011;63801;49.414;19.474;2024-01-10T04:26:17;227.43;;;71.25;;
75218;SDS011;63801;49.414;19.474;2024-01-10T04:28:17;237.40;;;67.20;;
75218;SDS011;63801;49.414;19.474;2024-01-10T04:30:18;214.52;;;64.80;;
75218;SDS011;63801;49.414;19.474;2024-01-10T04:32:18;175.60;;;50.17;;
75218;SDS011;63801;49.414;19.474;2024-01-10T04:34:19;151.45;;;46.70;;
75218;SDS011;63801;49.414;19.474;2024-01-10T04:36:19;158.15;;;45.30;;
75218;SDS011;63801;49.414;19.474;2024-01-10T04:38:19;146.15;;;46.22;;
75218;SDS011;63801;49.414;19.474;2024-01-10T04:40:20;167.57;;;50.88;;
75218;SDS011;63801;49.414;19.474;2024-01-10T04:42:20;167.07;;;49.70;;
75218;SDS011;63801;49.414;19.474;2024-01-10T04:44:20;302.63;;;93.70;;
75218;SDS011;63801;49.414;19.474;2024-01-10T04:46:21;366.58;;;104.50;;
75218;SDS011;63801;49.414;19.474;2024-01-10T04:48:21;229.60;;;64.28;;
75218;SDS011;63801;49.414;19.474;2024-01-10T04:50:22;202.30;;;56.67;;
75218;SDS011;63801;49.414;19.474;2024-01-10T04:52:22;204.73;;;62.75;;
75218;SDS011;63801;49.414;19.474;2024-01-10T04:54:23;207.48;;;61.42;;
75218;SDS011;63801;49.414;19.474;2024-01-10T04:56:23;199.70;;;57.38;;
75218;SDS011;63801;49.414;19.474;2024-01-10T04:58:23;185.05;;;56.25;;
75218;SDS011;63801;49.414;19.474;2024-01-10T05:00:24;169.38;;;45.30;;
75218;SDS011;63801;49.414;19.474;2024-01-10T05:02:25;156.20;;;51.05;;
75218;SDS011;63801;49.414;19.474;2024-01-10T05:04:25;148.90;;;49.63;;
75218;SDS011;63801;49.414;19.474;2024-01-10T05:06:26;157.98;;;48.92;;
75218;SDS011;63801;49.414;19.474;2024-01-10T05:08:26;183.43;;;52.15;;
75218;SDS011;63801;49.414;19.474;2024-01-10T05:10:26;180.15;;;52.70;;
75218;SDS011;63801;49.414;19.474;2024-01-10T05:12:27;176.02;;;51.72;;
75218;SDS011;63801;49.414;19.474;2024-01-10T05:14:28;183.77;;;50.53;;
75218;SDS011;63801;49.414;19.474;2024-01-10T05:16:28;185.40;;;53.75;;
75218;SDS011;63801;49.414;19.474;2024-01-10T05:18:29;193.20;;;54.80;;
75218;SDS011;63801;49.414;19.474;2024-01-10T05:20:29;232.23;;;63.10;;
75218;SDS011;63801;49.414;19.474;2024-01-10T05:22:29;213.77;;;61.92;;
75218;SDS011;63801;49.414;19.474;2024-01-10T05:24:30;417.67;;;109.88;;
75218;SDS011;63801;49.414;19.474;2024-01-10T05:26:30;322.63;;;96.95;;
75218;SDS011;63801;49.414;19.474;2024-01-10T05:28:30;273.98;;;78.18;;
75218;SDS011;63801;49.414;19.474;2024-01-10T05:30:31;343.25;;;95.00;;
75218;SDS011;63801;49.414;19.474;2024-01-10T05:32:31;332.65;;;102.90;;
75218;SDS011;63801;49.414;19.474;2024-01-10T05:34:32;326.30;;;94.93;;
75218;SDS011;63801;49.414;19.474;2024-01-10T05:36:32;317.17;;;98.38;;
75218;SDS011;63801;49.414;19.474;2024-01-10T05:38:33;328.70;;;99.63;;
75218;SDS011;63801;49.414;19.474;2024-01-10T05:40:34;454.85;;;151.55;;
75218;SDS011;63801;49.414;19.474;2024-01-10T05:42:34;367.50;;;117.05;;
75218;SDS011;63801;49.414;19.474;2024-01-10T05:44:35;285.13;;;84.43;;
75218;SDS011;63801;49.414;19.474;2024-01-10T05:46:35;227.38;;;67.10;;
75218;SDS011;63801;49.414;19.474;2024-01-10T05:48:35;257.42;;;74.22;;
75218;SDS011;63801;49.414;19.474;2024-01-10T05:50:36;302.75;;;85.20;;
75218;SDS011;63801;49.414;19.474;2024-01-10T05:52:37;284.08;;;82.78;;
75218;SDS011;63801;49.414;19.474;2024-01-10T05:54:38;285.98;;;81.40;;
75218;SDS011;63801;49.414;19.474;2024-01-10T05:56:38;267.00;;;78.13;;
75218;SDS011;63801;49.414;19.474;2024-01-10T05:58:39;240.30;;;68.60;;
75218;SDS011;63801;49.414;19.474;2024-01-10T06:00:40;255.63;;;70.90;;
75218;SDS011;63801;49.414;19.474;2024-01-10T06:02:40;319.13;;;89.03;;
75218;SDS011;63801;49.414;19.474;2024-01-10T06:04:40;299.80;;;76.45;;
75218;SDS011;63801;49.414;19.474;2024-01-10T06:06:41;293.15;;;83.53;;
75218;SDS011;63801;49.414;19.474;2024-01-10T06:08:41;329.10;;;87.47;;
75218;SDS011;63801;49.414;19.474;2024-01-10T06:10:41;305.73;;;87.65;;
75218;SDS011;63801;49.414;19.474;2024-01-10T06:12:42;346.27;;;96.53;;
75218;SDS011;63801;49.414;19.474;2024-01-10T06:14:43;272.42;;;80.55;;
75218;SDS011;63801;49.414;19.474;2024-01-10T06:16:43;294.27;;;82.97;;
75218;SDS011;63801;49.414;19.474;2024-01-10T06:18:45;262.70;;;76.40;;
75218;SDS011;63801;49.414;19.474;2024-01-10T06:20:45;189.45;;;56.67;;
75218;SDS011;63801;49.414;19.474;2024-01-10T06:22:45;294.30;;;83.97;;
75218;SDS011;63801;49.414;19.474;2024-01-10T06:24:46;193.43;;;54.60;;
75218;SDS011;63801;49.414;19.474;2024-01-10T06:26:46;129.18;;;39.75;;
75218;SDS011;63801;49.414;19.474;2024-01-10T06:28:47;145.68;;;42.90;;
75218;SDS011;63801;49.414;19.474;2024-01-10T06:30:47;137.38;;;41.63;;
75218;SDS011;63801;49.414;19.474;2024-01-10T06:32:48;154.18;;;44.80;;
75218;SDS011;63801;49.414;19.474;2024-01-10T06:34:48;161.10;;;47.08;;
75218;SDS011;63801;49.414;19.474;2024-01-10T06:36:48;163.45;;;48.03;;
75218;SDS011;63801;49.414;19.474;2024-01-10T06:38:49;207.20;;;60.80;;
75218;SDS011;63801;49.414;19.474;2024-01-10T06:40:49;168.95;;;52.50;;
75218;SDS011;63801;49.414;19.474;2024-01-10T06:42:50;223.23;;;69.75;;
75218;SDS011;63801;49.414;19.474;2024-01-10T06:44:50;245.35;;;73.70;;
75218;SDS011;63801;49.414;19.474;2024-01-10T06:46:51;244.38;;;71.90;;
75218;SDS011;63801;49.414;19.474;2024-01-10T06:48:51;224.65;;;67.75;;
75218;SDS011;63801;49.414;19.474;2024-01-10T06:50:51;218.85;;;66.10;;
75218;SDS011;63801;49.414;19.474;2024-01-10T06:52:52;241.32;;;73.85;;
75218;SDS011;63801;49.414;19.474;2024-01-10T06:54:53;250.68;;;77.22;;
75218;SDS011;63801;49.414;19.474;2024-01-10T06:56:53;346.98;;;104.35;;
75218;SDS011;63801;49.414;19.474;2024-01-10T06:58:54;339.77;;;100.75;;
75218;SDS011;63801;49.414;19.474;2024-01-10T07:00:54;365.98;;;122.30;;
75218;SDS011;63801;49.414;19.474;2024-01-10T07:02:54;375.08;;;124.10;;
75218;SDS011;63801;49.414;19.474;2024-01-10T07:04:55;401.45;;;138.80;;
75218;SDS011;63801;49.414;19.474;2024-01-10T07:06:55;371.40;;;121.38;;
75218;SDS011;63801;49.414;19.474;2024-01-10T07:08:55;383.63;;;126.80;;
75218;SDS011;63801;49.414;19.474;2024-01-10T07:10:56;303.05;;;104.95;;
75218;SDS011;63801;49.414;19.474;2024-01-10T07:12:57;346.73;;;110.28;;
75218;SDS011;63801;49.414;19.474;2024-01-10T07:14:57;363.75;;;115.70;;
75218;SDS011;63801;49.414;19.474;2024-01-10T07:16:58;323.23;;;110.50;;
75218;SDS011;63801;49.414;19.474;2024-01-10T07:18:58;326.77;;;109.45;;
75218;SDS011;63801;49.414;19.474;2024-01-10T07:20:59;343.90;;;122.55;;
75218;SDS011;63801;49.414;19.474;2024-01-10T07:23:00;382.00;;;127.03;;
75218;SDS011;63801;49.414;19.474;2024-01-10T07:25:00;355.30;;;119.15;;
75218;SDS011;63801;49.414;19.474;2024-01-10T07:27:01;353.75;;;120.28;;
75218;SDS011;63801;49.414;19.474;2024-01-10T07:29:01;371.20;;;125.57;;
75218;SDS011;63801;49.414;19.474;2024-01-10T07:31:02;338.38;;;118.15;;
75218;SDS011;63801;49.414;19.474;2024-01-10T07:33:02;341.30;;;113.53;;
75218;SDS011;63801;49.414;19.474;2024-01-10T07:35:03;326.25;;;110.90;;
75218;SDS011;63801;49.414;19.474;2024-01-10T07:37:04;337.05;;;116.75;;
75218;SDS011;63801;49.414;19.474;2024-01-10T07:39:04;331.33;;;120.18;;
75218;SDS011;63801;49.414;19.474;2024-01-10T07:41:04;313.15;;;111.47;;
75218;SDS011;63801;49.414;19.474;2024-01-10T07:43:05;382.02;;;136.07;;
75218;SDS011;63801;49.414;19.474;2024-01-10T07:45:05;431.02;;;173.25;;
75218;SDS011;63801;49.414;19.474;2024-01-10T07:47:06;483.48;;;201.23;;
75218;SDS011;63801;49.414;19.474;2024-01-10T07:49:07;443.98;;;166.75;;
75218;SDS011;63801;49.414;19.474;2024-01-10T07:51:07;364.23;;;128.32;;
75218;SDS011;63801;49.414;19.474;2024-01-10T07:53:08;344.90;;;127.68;;
75218;SDS011;63801;49.414;19.474;2024-01-10T07:55:08;330.58;;;128.05;;
75218;SDS011;63801;49.414;19.474;2024-01-10T07:57:09;218.02;;;85.78;;
75218;SDS011;63801;49.414;19.474;2024-01-10T07:59:09;191.48;;;72.10;;
75218;SDS011;63801;49.414;19.474;2024-01-10T08:01:10;297.98;;;128.15;;
75218;SDS011;63801;49.414;19.474;2024-01-10T08:03:10;349.40;;;144.90;;
75218;SDS011;63801;49.414;19.474;2024-01-10T08:05:11;208.32;;;75.13;;
75218;SDS011;63801;49.414;19.474;2024-01-10T08:07:12;159.00;;;58.63;;
75218;SDS011;63801;49.414;19.474;2024-01-10T08:09:13;135.90;;;52.83;;
75218;SDS011;63801;49.414;19.474;2024-01-10T08:11:14;133.57;;;53.85;;
75218;SDS011;63801;49.414;19.474;2024-01-10T08:13:14;135.13;;;53.83;;
75218;SDS011;63801;49.414;19.474;2024-01-10T08:15:15;144.88;;;54.47;;
75218;SDS011;63801;49.414;19.474;2024-01-10T08:17:15;127.82;;;52.72;;
75218;SDS011;63801;49.414;19.474;2024-01-10T08:19:15;151.90;;;56.75;;
75218;SDS011;63801;49.414;19.474;2024-01-10T08:21:16;170.25;;;70.00;;
75218;SDS011;63801;49.414;19.474;2024-01-10T08:23:16;178.60;;;80.40;;
75218;SDS011;63801;49.414;19.474;2024-01-10T08:25:18;156.10;;;60.60;;
75218;SDS011;63801;49.414;19.474;2024-01-10T08:27:18;148.25;;;60.60;;
75218;SDS011;63801;49.414;19.474;2024-01-10T08:29:19;154.50;;;62.85;;
75218;SDS011;63801;49.414;19.474;2024-01-10T08:31:20;156.25;;;65.57;;
75218;SDS011;63801;49.414;19.474;2024-01-10T08:33:22;148.25;;;61.13;;
75218;SDS011;63801;49.414;19.474;2024-01-10T08:35:23;167.73;;;68.13;;
75218;SDS011;63801;49.414;19.474;2024-01-10T08:37:23;165.20;;;66.50;;
75218;SDS011;63801;49.414;19.474;2024-01-10T08:39:23;179.73;;;73.68;;
75218;SDS011;63801;49.414;19.474;2024-01-10T08:41:25;194.80;;;82.43;;
75218;SDS011;63801;49.414;19.474;2024-01-10T08:43:26;199.15;;;83.05;;
75218;SDS011;63801;49.414;19.474;2024-01-10T08:45:26;172.70;;;74.05;;
75218;SDS011;63801;49.414;19.474;2024-01-10T08:47:27;159.55;;;65.40;;
75218;SDS011;63801;49.414;19.474;2024-01-10T08:49:27;170.25;;;69.25;;
75218;SDS011;63801;49.414;19.474;2024-01-10T08:51:27;164.95;;;70.05;;
75218;SDS011;63801;49.414;19.474;2024-01-10T08:53:27;160.15;;;64.45;;
75218;SDS011;63801;49.414;19.474;2024-01-10T08:55:28;152.95;;;65.07;;
75218;SDS011;63801;49.414;19.474;2024-01-10T08:57:28;156.23;;;65.95;;
75218;SDS011;63801;49.414;19.474;2024-01-10T08:59:29;171.07;;;73.65;;
75218;SDS011;63801;49.414;19.474;2024-01-10T09:01:30;138.60;;;59.28;;
75218;SDS011;63801;49.414;19.474;2024-01-10T09:03:30;137.98;;;58.05;;
75218;SDS011;63801;49.414;19.474;2024-01-10T09:05:31;134.80;;;58.25;;
75218;SDS011;63801;49.414;19.474;2024-01-10T09:07:31;140.18;;;59.10;;
75218;SDS011;63801;49.414;19.474;2024-01-10T09:09:31;150.20;;;61.33;;
75218;SDS011;63801;49.414;19.474;2024-01-10T09:11:32;145.07;;;61.80;;
75218;SDS011;63801;49.414;19.474;2024-01-10T09:13:33;137.98;;;61.38;;
75218;SDS011;63801;49.414;19.474;2024-01-10T09:15:34;146.63;;;67.70;;
75218;SDS011;63801;49.414;19.474;2024-01-10T09:17:34;142.30;;;64.45;;
75218;SDS011;63801;49.414;19.474;2024-01-10T09:19:35;167.43;;;82.97;;
75218;SDS011;63801;49.414;19.474;2024-01-10T09:21:35;159.68;;;77.78;;
75218;SDS011;63801;49.414;19.474;2024-01-10T09:23:36;153.93;;;73.90;;
75218;SDS011;63801;49.414;19.474;2024-01-10T09:25:37;138.15;;;62.00;;
75218;SDS011;63801;49.414;19.474;2024-01-10T09:27:38;137.05;;;60.42;;
75218;SDS011;63801;49.414;19.474;2024-01-10T09:29:44;143.05;;;61.85;;
75218;SDS011;63801;49.414;19.474;2024-01-10T09:31:44;145.55;;;62.13;;
75218;SDS011;63801;49.414;19.474;2024-01-10T09:33:44;147.07;;;65.07;;
75218;SDS011;63801;49.414;19.474;2024-01-10T09:35:44;142.07;;;64.57;;
75218;SDS011;63801;49.414;19.474;2024-01-10T09:37:45;139.48;;;63.67;;
75218;SDS011;63801;49.414;19.474;2024-01-10T09:39:45;139.75;;;61.08;;
75218;SDS011;63801;49.414;19.474;2024-01-10T09:41:48;128.25;;;58.75;;
75218;SDS011;63801;49.414;19.474;2024-01-10T09:43:50;233.07;;;110.78;;
75218;SDS011;63801;49.414;19.474;2024-01-10T09:45:51;132.75;;;59.30;;
75218;SDS011;63801;49.414;19.474;2024-01-10T09:47:56;174.80;;;89.63;;
75218;SDS011;63801;49.414;19.474;2024-01-10T09:49:57;149.07;;;67.82;;
75218;SDS011;63801;49.414;19.474;2024-01-10T09:51:58;121.75;;;53.67;;
75218;SDS011;63801;49.414;19.474;2024-01-10T09:54:02;125.10;;;65.90;;
75218;SDS011;63801;49.414;19.474;2024-01-10T09:56:04;124.50;;;61.65;;
75218;SDS011;63801;49.414;19.474;2024-01-10T09:58:05;116.22;;;59.13;;
75218;SDS011;63801;49.414;19.474;2024-01-10T10:00:09;136.57;;;72.05;;
75218;SDS011;63801;49.414;19.474;2024-01-10T10:02:11;88.57;;;42.92;;
75218;SDS011;63801;49.414;19.474;2024-01-10T10:04:12;84.35;;;38.42;;
75218;SDS011;63801;49.414;19.474;2024-01-10T10:06:12;91.30;;;42.53;;
75218;SDS011;63801;49.414;19.474;2024-01-10T10:08:13;87.00;;;42.42;;
75218;SDS011;63801;49.414;19.474;2024-01-10T10:10:15;102.33;;;48.83;;
75218;SDS011;63801;49.414;19.474;2024-01-10T10:12:16;109.88;;;52.60;;
75218;SDS011;63801;49.414;19.474;2024-01-10T10:14:17;101.50;;;49.72;;
75218;SDS011;63801;49.414;19.474;2024-01-10T10:16:25;108.75;;;50.10;;
75218;SDS011;63801;49.414;19.474;2024-01-10T10:18:26;101.10;;;48.22;;
75218;SDS011;63801;49.414;19.474;2024-01-10T10:20:28;103.50;;;47.45;;
75218;SDS011;63801;49.414;19.474;2024-01-10T10:22:38;113.80;;;51.83;;
75218;SDS011;63801;49.414;19.474;2024-01-10T10:24:39;104.38;;;47.92;;
75218;SDS011;63801;49.414;19.474;2024-01-10T10:26:41;102.82;;;48.45;;
75218;SDS011;63801;49.414;19.474;2024-01-10T10:28:41;103.63;;;48.97;;
75218;SDS011;63801;49.414;19.474;2024-01-10T10:30:42;97.97;;;46.35;;
75218;SDS011;63801;49.414;19.474;2024-01-10T10:32:42;96.15;;;45.38;;
75218;SDS011;63801;49.414;19.474;2024-01-10T10:34:42;94.45;;;44.95;;
75218;SDS011;63801;49.414;19.474;2024-01-10T10:36:43;104.07;;;48.22;;
75218;SDS011;63801;49.414;19.474;2024-01-10T10:38:44;99.80;;;46.50;;
75218;SDS011;63801;49.414;19.474;2024-01-10T10:40:45;107.73;;;53.73;;
75218;SDS011;63801;49.414;19.474;2024-01-10T10:42:52;91.10;;;42.25;;
75218;SDS011;63801;49.414;19.474;2024-01-10T10:44:58;99.45;;;44.20;;
75218;SDS011;63801;49.414;19.474;2024-01-10T10:47:04;99.80;;;44.35;;
75218;SDS011;63801;49.414;19.474;2024-01-10T10:49:06;94.28;;;43.90;;
75218;SDS011;63801;49.414;19.474;2024-01-10T10:51:17;104.38;;;46.67;;
75218;SDS011;63801;49.414;19.474;2024-01-10T10:53:27;92.05;;;45.13;;
75218;SDS011;63801;49.414;19.474;2024-01-10T10:55:29;117.60;;;54.67;;
75218;SDS011;63801;49.414;19.474;2024-01-10T10:57:29;109.30;;;49.28;;
75218;SDS011;63801;49.414;19.474;2024-01-10T10:59:31;105.75;;;48.65;;
75218;SDS011;63801;49.414;19.474;2024-01-10T11:01:34;109.40;;;48.83;;
75218;SDS011;63801;49.414;19.474;2024-01-10T11:03:36;114.07;;;48.17;;
75218;SDS011;63801;49.414;19.474;2024-01-10T11:05:38;103.78;;;45.92;;
75218;SDS011;63801;49.414;19.474;2024-01-10T11:07:41;102.63;;;45.00;;
75218;SDS011;63801;49.414;19.474;2024-01-10T11:09:44;114.07;;;50.28;;
75218;SDS011;63801;49.414;19.474;2024-01-10T11:12:02;110.75;;;49.55;;
75218;SDS011;63801;49.414;19.474;2024-01-10T11:16:42;106.68;;;46.08;;
75218;SDS011;63801;49.414;19.474;2024-01-10T11:21:38;131.55;;;55.40;;
75218;SDS011;63801;49.414;19.474;2024-01-10T11:23:47;123.13;;;50.72;;
75218;SDS011;63801;49.414;19.474;2024-01-10T11:25:51;120.93;;;51.72;;
75218;SDS011;63801;49.414;19.474;2024-01-10T11:27:52;120.70;;;53.72;;
75218;SDS011;63801;49.414;19.474;2024-01-10T11:29:53;128.23;;;55.80;;
75218;SDS011;63801;49.414;19.474;2024-01-10T11:31:54;136.50;;;68.18;;